createdAt,value
2023-01-05T00:00:59.685Z,88.28
2023-01-05T00:01:59.718Z,88.28
2023-01-05T00:02:59.673Z,88.28
2023-01-05T00:03:59.682Z,88.28
2023-01-05T00:04:59.643Z,88.22
2023-01-05T00:05:59.650Z,88.33
2023-01-05T00:06:59.618Z,88.22
2023-01-05T00:07:59.603Z,88.22
2023-01-05T00:08:59.587Z,88.07
2023-01-05T00:09:59.581Z,87.98
2023-01-05T00:10:59.564Z,87.98
2023-01-05T00:11:59.564Z,87.87
2023-01-05T00:12:59.550Z,87.81
2023-01-05T00:13:59.537Z,87.81
2023-01-05T00:14:59.520Z,87.81
2023-01-05T00:15:59.515Z,87.81
2023-01-05T00:16:59.568Z,87.71
2023-01-05T00:17:59.491Z,87.60
2023-01-05T00:18:59.475Z,87.51
2023-01-05T00:19:59.472Z,87.51
2023-01-05T00:20:59.475Z,87.51
2023-01-05T00:21:59.460Z,87.40
2023-01-05T00:22:59.458Z,87.30
2023-01-05T00:23:59.429Z,87.10
2023-01-05T00:24:59.406Z,86.89
2023-01-05T00:25:59.402Z,86.69
2023-01-05T00:26:59.380Z,86.59
2023-01-05T00:27:59.379Z,86.38
2023-01-05T00:28:59.373Z,86.38
2023-01-05T00:29:59.345Z,86.18
2023-01-05T00:30:59.341Z,86.18
2023-01-05T00:31:59.396Z,85.97
2023-01-05T00:32:59.332Z,85.77
2023-01-05T00:33:59.311Z,85.72
2023-01-05T00:34:59.287Z,85.62
2023-01-05T00:35:59.281Z,85.62
2023-01-05T00:36:59.274Z,85.62
2023-01-05T00:37:59.283Z,85.62
2023-01-05T00:38:59.255Z,85.72
2023-01-05T00:39:59.236Z,85.72
2023-01-05T00:40:59.229Z,85.72
2023-01-05T00:41:59.217Z,85.72
2023-01-05T00:42:59.204Z,85.83
2023-01-05T00:43:59.288Z,85.93
2023-01-05T00:44:59.181Z,85.93
2023-01-05T00:45:59.210Z,85.93
2023-01-05T00:46:59.160Z,86.03
2023-01-05T00:47:59.143Z,86.03
2023-01-05T00:48:59.140Z,86.03
2023-01-05T00:49:59.118Z,85.93
2023-01-05T00:50:59.105Z,86.03
2023-01-05T00:51:59.105Z,86.03
2023-01-05T00:52:59.090Z,86.03
2023-01-05T00:53:59.099Z,86.03
2023-01-05T00:54:59.062Z,85.93
2023-01-05T00:55:59.082Z,85.93
2023-01-05T00:56:59.043Z,85.93
2023-01-05T00:57:59.026Z,85.93
2023-01-05T00:58:59.025Z,85.93
2023-01-05T00:59:59.006Z,85.93
2023-01-05T01:00:59.031Z,85.93
2023-01-05T01:01:59.118Z,85.83
2023-01-05T01:02:59.014Z,85.93
2023-01-05T01:03:58.962Z,85.83
2023-01-05T01:04:58.958Z,85.83
2023-01-05T01:05:58.940Z,85.83
2023-01-05T01:06:58.928Z,85.72
2023-01-05T01:07:58.915Z,85.72
2023-01-05T01:08:58.899Z,85.62
2023-01-05T01:09:58.921Z,85.52
2023-01-05T01:10:58.886Z,85.42
2023-01-05T01:11:58.865Z,85.42
2023-01-05T01:12:58.870Z,85.42
2023-01-05T01:13:58.848Z,85.42
2023-01-05T01:14:58.842Z,85.42
2023-01-05T01:15:58.831Z,85.42
2023-01-05T01:16:58.877Z,85.42
2023-01-05T01:17:58.804Z,85.32
2023-01-05T01:19:01.720Z,85.32
2023-01-05T01:19:58.775Z,85.32
2023-01-05T01:20:58.777Z,85.32
2023-01-05T01:21:58.752Z,85.32
2023-01-05T01:22:58.739Z,85.21
2023-01-05T01:23:58.728Z,85.21
2023-01-05T01:24:58.722Z,85.21
2023-01-05T01:25:58.738Z,85.21
2023-01-05T01:26:58.694Z,85.21
2023-01-05T01:27:58.689Z,85.21
2023-01-05T01:28:58.678Z,85.21
2023-01-05T01:29:58.669Z,85.21
2023-01-05T01:30:58.692Z,85.21
2023-01-05T01:31:58.644Z,85.32
2023-01-05T01:32:58.630Z,85.32
2023-01-05T01:33:58.618Z,85.32
2023-01-05T01:34:58.608Z,85.32
2023-01-05T01:35:58.597Z,85.32
2023-01-05T01:36:58.583Z,85.32
2023-01-05T01:37:58.567Z,85.42
2023-01-05T01:38:58.556Z,85.42
2023-01-05T01:39:58.563Z,85.52
2023-01-05T01:40:58.541Z,85.42
2023-01-05T01:41:58.555Z,85.42
2023-01-05T01:42:58.513Z,85.42
2023-01-05T01:43:58.534Z,85.52
2023-01-05T01:44:58.513Z,85.52
2023-01-05T01:45:58.537Z,85.62
2023-01-05T01:46:58.468Z,85.52
2023-01-05T01:47:58.465Z,85.52
2023-01-05T01:48:58.449Z,85.52
2023-01-05T01:49:58.451Z,85.52
2023-01-05T01:51:02.107Z,85.42
2023-01-05T01:51:58.410Z,85.52
2023-01-05T01:52:58.394Z,85.52
2023-01-05T01:53:58.388Z,85.52
2023-01-05T01:54:58.382Z,85.62
2023-01-05T01:55:58.379Z,85.56
2023-01-05T01:56:58.353Z,85.62
2023-01-05T01:57:58.375Z,85.62
2023-01-05T01:58:58.332Z,85.62
2023-01-05T01:59:58.326Z,85.52
2023-01-05T02:00:58.333Z,85.42
2023-01-05T02:01:58.457Z,85.32
2023-01-05T02:02:58.287Z,85.21
2023-01-05T02:03:58.277Z,85.36
2023-01-05T02:04:58.349Z,85.26
2023-01-05T02:05:58.252Z,85.36
2023-01-05T02:06:58.240Z,85.36
2023-01-05T02:07:58.233Z,85.32
2023-01-05T02:08:58.218Z,85.32
2023-01-05T02:09:58.211Z,85.21
2023-01-05T02:10:58.194Z,85.21
2023-01-05T02:11:58.181Z,85.21
2023-01-05T02:12:58.172Z,85.21
2023-01-05T02:13:58.190Z,85.21
2023-01-05T02:14:58.152Z,85.11
2023-01-05T02:15:58.132Z,85.11
2023-01-05T02:16:58.189Z,85.01
2023-01-05T02:17:58.118Z,85.11
2023-01-05T02:18:58.104Z,85.01
2023-01-05T02:19:58.088Z,85.01
2023-01-05T02:20:58.079Z,85.01
2023-01-05T02:21:58.072Z,85.01
2023-01-05T02:22:58.062Z,85.01
2023-01-05T02:23:58.051Z,84.91
2023-01-05T02:24:58.034Z,84.81
2023-01-05T02:25:58.031Z,84.71
2023-01-05T02:26:58.015Z,84.71
2023-01-05T02:27:58.006Z,84.60
2023-01-05T02:28:59.982Z,84.60
2023-01-05T02:29:58.005Z,84.60
2023-01-05T02:30:57.973Z,84.50
2023-01-05T02:31:57.960Z,84.60
2023-01-05T02:32:57.940Z,84.71
2023-01-05T02:33:57.937Z,84.81
2023-01-05T02:34:57.925Z,84.71
2023-01-05T02:35:57.917Z,84.71
2023-01-05T02:36:57.891Z,84.60
2023-01-05T02:37:57.888Z,84.60
2023-01-05T02:38:57.876Z,84.60
2023-01-05T02:39:57.875Z,84.60
2023-01-05T02:40:57.855Z,84.60
2023-01-05T02:41:57.845Z,84.50
2023-01-05T02:42:57.829Z,84.50
2023-01-05T02:43:57.818Z,84.40
2023-01-05T02:44:57.810Z,84.50
2023-01-05T02:45:57.866Z,84.40
2023-01-05T02:46:57.784Z,84.30
2023-01-05T02:47:57.783Z,84.19
2023-01-05T02:48:57.762Z,84.19
2023-01-05T02:49:57.760Z,84.09
2023-01-05T02:50:57.774Z,84.09
2023-01-05T02:51:57.725Z,84.19
2023-01-05T02:52:57.716Z,84.19
2023-01-05T02:53:57.712Z,84.30
2023-01-05T02:54:57.694Z,84.19
2023-01-05T02:55:57.687Z,84.19
2023-01-05T02:56:57.666Z,84.19
2023-01-05T02:57:57.673Z,84.19
2023-01-05T02:58:57.640Z,84.09
2023-01-05T02:59:57.649Z,84.09
2023-01-05T03:00:57.704Z,84.09
2023-01-05T03:01:57.894Z,84.09
2023-01-05T03:02:57.866Z,84.09
2023-01-05T03:03:57.605Z,83.99
2023-01-05T03:04:57.587Z,83.99
2023-01-05T03:05:57.595Z,83.99
2023-01-05T03:06:57.559Z,83.89
2023-01-05T03:07:57.535Z,83.99
2023-01-05T03:08:57.547Z,83.89
2023-01-05T03:09:57.524Z,83.78
2023-01-05T03:10:57.513Z,83.78
2023-01-05T03:11:57.519Z,83.78
2023-01-05T03:12:57.485Z,83.68
2023-01-05T03:13:57.476Z,83.58
2023-01-05T03:14:57.473Z,83.48
2023-01-05T03:15:57.493Z,83.27
2023-01-05T03:16:57.464Z,83.17
2023-01-05T03:17:57.453Z,82.97
2023-01-05T03:18:57.415Z,82.86
2023-01-05T03:19:57.398Z,82.86
2023-01-05T03:20:57.428Z,82.86
2023-01-05T03:21:57.388Z,82.86
2023-01-05T03:22:57.377Z,82.97
2023-01-05T03:23:57.359Z,82.97
2023-01-05T03:24:57.346Z,82.97
2023-01-05T03:25:57.339Z,82.86
2023-01-05T03:26:57.323Z,82.86
2023-01-05T03:27:57.315Z,82.86
2023-01-05T03:28:57.298Z,82.86
2023-01-05T03:29:57.286Z,82.86
2023-01-05T03:30:57.386Z,82.86
2023-01-05T03:31:57.266Z,82.86
2023-01-05T03:32:57.250Z,82.76
2023-01-05T03:33:57.262Z,82.66
2023-01-05T03:34:57.232Z,82.66
2023-01-05T03:35:57.241Z,82.66
2023-01-05T03:36:57.210Z,82.66
2023-01-05T03:37:57.203Z,82.56
2023-01-05T03:38:57.183Z,82.56
2023-01-05T03:39:57.189Z,82.56
2023-01-05T03:40:57.158Z,82.56
2023-01-05T03:41:57.155Z,82.66
2023-01-05T03:42:57.139Z,82.66
2023-01-05T03:43:57.124Z,82.45
2023-01-05T03:44:57.117Z,82.45
2023-01-05T03:45:57.183Z,82.45
2023-01-05T03:46:57.117Z,82.45
2023-01-05T03:47:57.075Z,82.45
2023-01-05T03:48:57.066Z,82.36
2023-01-05T03:49:57.081Z,82.25
2023-01-05T03:50:57.046Z,82.25
2023-01-05T03:51:57.036Z,82.25
2023-01-05T03:52:57.022Z,82.25
2023-01-05T03:53:57.012Z,82.36
2023-01-05T03:54:57.000Z,82.45
2023-01-05T03:55:57.003Z,82.36
2023-01-05T03:56:57.015Z,82.36
2023-01-05T03:57:56.976Z,82.36
2023-01-05T03:58:56.957Z,82.36
2023-01-05T03:59:56.958Z,82.36
2023-01-05T04:00:56.937Z,82.45
2023-01-05T04:01:57.126Z,82.56
2023-01-05T04:02:57.070Z,82.66
2023-01-05T04:03:56.987Z,82.66
2023-01-05T04:04:56.884Z,82.66
2023-01-05T04:05:56.895Z,82.86
2023-01-05T04:06:56.864Z,82.97
2023-01-05T04:07:56.859Z,83.17
2023-01-05T04:08:56.837Z,83.27
2023-01-05T04:09:56.842Z,83.48
2023-01-05T04:10:56.817Z,83.58
2023-01-05T04:11:56.807Z,83.58
2023-01-05T04:12:56.793Z,83.48
2023-01-05T04:13:56.791Z,83.38
2023-01-05T04:14:56.772Z,83.38
2023-01-05T04:15:56.796Z,83.48
2023-01-05T04:16:56.744Z,83.38
2023-01-05T04:17:56.737Z,83.38
2023-01-05T04:18:56.730Z,83.38
2023-01-05T04:19:56.718Z,83.48
2023-01-05T04:20:56.706Z,83.58
2023-01-05T04:21:56.716Z,83.58
2023-01-05T04:22:56.684Z,83.68
2023-01-05T04:23:56.678Z,83.78
2023-01-05T04:24:56.665Z,83.78
2023-01-05T04:25:56.648Z,83.78
2023-01-05T04:26:56.637Z,83.99
2023-01-05T04:27:56.620Z,83.99
2023-01-05T04:28:56.611Z,84.19
2023-01-05T04:29:56.618Z,84.40
2023-01-05T04:30:56.644Z,84.60
2023-01-05T04:31:56.616Z,84.81
2023-01-05T04:32:56.562Z,85.11
2023-01-05T04:33:56.557Z,85.32
2023-01-05T04:34:56.547Z,85.42
2023-01-05T04:35:56.535Z,85.62
2023-01-05T04:36:58.521Z,85.83
2023-01-05T04:37:56.536Z,86.03
2023-01-05T04:38:56.503Z,86.24
2023-01-05T04:39:56.487Z,86.44
2023-01-05T04:40:56.471Z,86.54
2023-01-05T04:41:56.471Z,86.69
2023-01-05T04:42:56.464Z,86.79
2023-01-05T04:43:56.441Z,86.79
2023-01-05T04:44:56.429Z,86.89
2023-01-05T04:45:56.423Z,86.99
2023-01-05T04:46:56.451Z,86.99
2023-01-05T04:47:56.391Z,87.10
2023-01-05T04:48:56.396Z,86.99
2023-01-05T04:49:56.364Z,86.89
2023-01-05T04:50:56.371Z,86.89
2023-01-05T04:51:56.373Z,86.89
2023-01-05T04:52:56.334Z,86.79
2023-01-05T04:53:56.357Z,86.79
2023-01-05T04:54:56.322Z,86.59
2023-01-05T04:55:56.305Z,86.48
2023-01-05T04:56:56.303Z,86.59
2023-01-05T04:57:56.275Z,86.59
2023-01-05T04:58:56.273Z,86.59
2023-01-05T04:59:56.264Z,86.69
2023-01-05T05:00:56.251Z,86.89
2023-01-05T05:01:56.395Z,86.99
2023-01-05T05:02:56.335Z,87.10
2023-01-05T05:03:56.280Z,87.10
2023-01-05T05:04:56.200Z,87.20
2023-01-05T05:05:56.191Z,87.20
2023-01-05T05:06:56.173Z,87.20
2023-01-05T05:07:56.175Z,87.20
2023-01-05T05:08:56.160Z,87.20
2023-01-05T05:09:56.190Z,87.20
2023-01-05T05:10:56.165Z,87.20
2023-01-05T05:11:56.131Z,87.20
2023-01-05T05:12:56.121Z,87.20
2023-01-05T05:13:56.097Z,87.30
2023-01-05T05:14:56.086Z,87.30
2023-01-05T05:15:56.159Z,87.40
2023-01-05T05:16:56.063Z,87.51
2023-01-05T05:17:56.049Z,87.51
2023-01-05T05:18:56.049Z,87.51
2023-01-05T05:19:56.037Z,87.60
2023-01-05T05:20:56.018Z,87.60
2023-01-05T05:21:56.022Z,87.71
2023-01-05T05:22:55.993Z,87.81
2023-01-05T05:23:55.975Z,87.81
2023-01-05T05:24:55.963Z,87.81
2023-01-05T05:25:55.991Z,87.92
2023-01-05T05:26:55.949Z,88.12
2023-01-05T05:27:55.941Z,88.22
2023-01-05T05:28:55.927Z,88.33
2023-01-05T05:29:55.906Z,88.53
2023-01-05T05:30:55.934Z,88.63
2023-01-05T05:31:55.894Z,88.73
2023-01-05T05:32:55.873Z,88.94
2023-01-05T05:33:55.863Z,89.04
2023-01-05T05:34:55.856Z,89.14
2023-01-05T05:35:55.851Z,89.14
2023-01-05T05:36:55.834Z,89.24
2023-01-05T05:37:56.913Z,89.24
2023-01-05T05:38:55.806Z,89.24
2023-01-05T05:39:55.805Z,89.24
2023-01-05T05:40:55.787Z,89.24
2023-01-05T05:41:55.853Z,89.24
2023-01-05T05:42:55.770Z,89.24
2023-01-05T05:43:55.769Z,89.24
2023-01-05T05:44:55.736Z,89.24
2023-01-05T05:45:55.732Z,89.28
2023-01-05T05:46:55.740Z,89.18
2023-01-05T05:47:55.708Z,89.18
2023-01-05T05:48:55.696Z,88.98
2023-01-05T05:49:55.676Z,88.98
2023-01-05T05:50:55.689Z,88.87
2023-01-05T05:51:55.671Z,88.87
2023-01-05T05:52:55.643Z,88.98
2023-01-05T05:53:55.639Z,88.87
2023-01-05T05:54:55.624Z,88.77
2023-01-05T05:55:55.612Z,88.67
2023-01-05T05:56:55.604Z,88.67
2023-01-05T05:57:55.613Z,88.67
2023-01-05T05:59:01.071Z,88.67
2023-01-05T05:59:55.568Z,88.67
2023-01-05T06:00:55.563Z,88.67
2023-01-05T06:01:55.662Z,88.67
2023-01-05T06:02:55.705Z,88.77
2023-01-05T06:03:55.637Z,88.87
2023-01-05T06:04:55.511Z,88.87
2023-01-05T06:05:55.527Z,89.08
2023-01-05T06:06:55.486Z,89.18
2023-01-05T06:07:55.477Z,89.49
2023-01-05T06:08:55.460Z,89.59
2023-01-05T06:09:55.455Z,89.80
2023-01-05T06:10:55.436Z,89.90
2023-01-05T06:11:55.424Z,89.90
2023-01-05T06:12:55.434Z,89.80
2023-01-05T06:13:55.421Z,89.80
2023-01-05T06:14:55.396Z,89.69
2023-01-05T06:15:55.497Z,89.49
2023-01-05T06:16:55.373Z,89.12
2023-01-05T06:17:55.360Z,89.12
2023-01-05T06:18:55.351Z,88.92
2023-01-05T06:19:55.336Z,88.71
2023-01-05T06:21:01.370Z,88.51
2023-01-05T06:21:55.318Z,88.40
2023-01-05T06:22:55.304Z,88.30
2023-01-05T06:23:55.293Z,88.20
2023-01-05T06:24:55.284Z,88.00
2023-01-05T06:25:55.262Z,87.79
2023-01-05T06:26:55.276Z,87.69
2023-01-05T06:27:55.245Z,87.48
2023-01-05T06:28:55.240Z,87.38
2023-01-05T06:29:55.240Z,87.38
2023-01-05T06:30:55.218Z,87.38
2023-01-05T06:31:55.237Z,87.38
2023-01-05T06:32:55.190Z,87.38
2023-01-05T06:33:55.177Z,87.38
2023-01-05T06:34:55.168Z,87.38
2023-01-05T06:35:55.155Z,87.38
2023-01-05T06:36:59.290Z,87.38
2023-01-05T06:37:55.142Z,87.48
2023-01-05T06:38:55.121Z,87.48
2023-01-05T06:39:55.108Z,87.69
2023-01-05T06:40:55.096Z,87.59
2023-01-05T06:41:55.091Z,87.53
2023-01-05T06:42:55.075Z,87.53
2023-01-05T06:43:55.072Z,87.42
2023-01-05T06:44:55.051Z,87.32
2023-01-05T06:45:55.093Z,87.21
2023-01-05T06:46:55.036Z,87.12
2023-01-05T06:47:55.020Z,86.97
2023-01-05T06:48:55.004Z,86.87
2023-01-05T06:49:54.997Z,86.87
2023-01-05T06:50:54.978Z,86.87
2023-01-05T06:51:54.982Z,86.66
2023-01-05T06:52:54.972Z,86.71
2023-01-05T06:53:54.948Z,86.71
2023-01-05T06:54:54.929Z,86.81
2023-01-05T06:55:54.925Z,86.77
2023-01-05T06:56:54.934Z,86.77
2023-01-05T06:58:00.469Z,86.87
2023-01-05T06:58:54.887Z,86.87
2023-01-05T06:59:54.882Z,86.77
2023-01-05T07:00:55.015Z,86.66
2023-01-05T07:01:55.060Z,86.56
2023-01-05T07:02:54.839Z,86.36
2023-01-05T07:03:54.890Z,86.26
2023-01-05T07:04:54.824Z,86.15
2023-01-05T07:05:54.807Z,86.15
2023-01-05T07:06:54.796Z,86.15
2023-01-05T07:07:54.787Z,86.15
2023-01-05T07:08:54.778Z,86.05
2023-01-05T07:09:54.757Z,85.85
2023-01-05T07:10:54.780Z,85.74
2023-01-05T07:11:54.757Z,85.64
2023-01-05T07:12:54.751Z,85.54
2023-01-05T07:13:54.730Z,85.44
2023-01-05T07:14:57.673Z,85.33
2023-01-05T07:15:54.789Z,85.44
2023-01-05T07:16:54.746Z,85.33
2023-01-05T07:17:54.699Z,85.23
2023-01-05T07:18:54.671Z,85.03
2023-01-05T07:19:54.641Z,84.93
2023-01-05T07:20:54.639Z,84.82
2023-01-05T07:21:56.885Z,84.62
2023-01-05T07:22:56.619Z,84.52
2023-01-05T07:23:54.603Z,84.52
2023-01-05T07:24:54.590Z,84.52
2023-01-05T07:25:54.581Z,84.52
2023-01-05T07:26:54.567Z,84.41
2023-01-05T07:27:54.558Z,84.41
2023-01-05T07:28:54.539Z,84.31
2023-01-05T07:29:54.535Z,84.21
2023-01-05T07:30:54.520Z,84.11
2023-01-05T07:31:54.545Z,84.00
2023-01-05T07:32:54.504Z,83.80
2023-01-05T07:33:54.516Z,83.59
2023-01-05T07:34:56.221Z,83.39
2023-01-05T07:35:54.467Z,83.29
2023-01-05T07:36:54.453Z,83.29
2023-01-05T07:37:54.435Z,83.29
2023-01-05T07:38:56.726Z,83.39
2023-01-05T07:39:54.455Z,83.19
2023-01-05T07:40:54.405Z,83.08
2023-01-05T07:41:54.406Z,83.08
2023-01-05T07:42:54.415Z,83.08
2023-01-05T07:43:54.368Z,82.88
2023-01-05T07:44:54.362Z,82.88
2023-01-05T07:45:54.404Z,82.88
2023-01-05T07:46:54.341Z,82.37
2023-01-05T07:47:54.331Z,82.00
2023-01-05T07:48:54.317Z,82.00
2023-01-05T07:49:54.341Z,82.16
2023-01-05T07:50:54.296Z,82.16
2023-01-05T07:51:54.299Z,82.06
2023-01-05T07:52:54.293Z,82.06
2023-01-05T07:53:54.260Z,82.06
2023-01-05T07:54:54.250Z,81.96
2023-01-05T07:55:54.231Z,81.86
2023-01-05T07:56:54.228Z,81.86
2023-01-05T07:57:54.226Z,81.86
2023-01-05T07:58:54.223Z,81.96
2023-01-05T07:59:54.186Z,81.96
2023-01-05T08:00:54.258Z,81.86
2023-01-05T08:01:54.441Z,81.75
2023-01-05T08:02:54.162Z,81.75
2023-01-05T08:03:54.237Z,81.75
2023-01-05T08:04:54.142Z,81.86
2023-01-05T08:05:54.138Z,81.59
2023-01-05T08:06:54.111Z,81.59
2023-01-05T08:07:54.111Z,81.69
2023-01-05T08:08:54.089Z,82.00
2023-01-05T08:09:54.088Z,81.79
2023-01-05T08:10:54.061Z,81.75
2023-01-05T08:11:54.068Z,81.34
2023-01-05T08:12:54.053Z,81.04
2023-01-05T08:13:54.041Z,80.93
2023-01-05T08:14:54.022Z,80.83
2023-01-05T08:15:54.005Z,80.93
2023-01-05T08:16:54.113Z,80.83
2023-01-05T08:17:54.008Z,80.73
2023-01-05T08:18:53.993Z,80.73
2023-01-05T08:19:54.018Z,80.63
2023-01-05T08:20:53.986Z,80.59
2023-01-05T08:21:54.010Z,80.49
2023-01-05T08:22:53.946Z,80.38
2023-01-05T08:23:53.911Z,80.28
2023-01-05T08:24:53.917Z,80.08
2023-01-05T08:25:53.900Z,79.98
2023-01-05T08:26:53.911Z,79.77
2023-01-05T08:27:53.875Z,79.77
2023-01-05T08:28:53.856Z,79.67
2023-01-05T08:29:53.850Z,79.57
2023-01-05T08:30:53.833Z,79.67
2023-01-05T08:31:53.945Z,79.87
2023-01-05T08:32:53.826Z,79.67
2023-01-05T08:33:53.833Z,79.53
2023-01-05T08:34:55.749Z,79.46
2023-01-05T08:35:53.776Z,79.33
2023-01-05T08:36:53.774Z,79.43
2023-01-05T08:37:53.792Z,79.22
2023-01-05T08:38:53.748Z,79.02
2023-01-05T08:39:53.740Z,79.02
2023-01-05T08:40:53.739Z,78.98
2023-01-05T08:41:58.844Z,79.08
2023-01-05T08:42:53.703Z,78.88
2023-01-05T08:43:53.695Z,78.92
2023-01-05T08:44:53.686Z,79.12
2023-01-05T08:45:53.693Z,79.19
2023-01-05T08:46:53.653Z,78.98
2023-01-05T08:47:53.641Z,79.08
2023-01-05T08:48:53.653Z,78.98
2023-01-05T08:49:53.620Z,78.98
2023-01-05T08:50:53.611Z,78.78
2023-01-05T08:51:53.603Z,78.68
2023-01-05T08:52:53.589Z,78.88
2023-01-05T08:53:53.613Z,78.88
2023-01-05T08:54:53.575Z,78.78
2023-01-05T08:55:53.555Z,78.57
2023-01-05T08:56:53.542Z,78.68
2023-01-05T08:57:53.530Z,78.57
2023-01-05T08:58:53.525Z,78.37
2023-01-05T08:59:53.512Z,78.47
2023-01-05T09:00:53.575Z,78.47
2023-01-05T09:01:53.685Z,78.57
2023-01-05T09:02:53.536Z,78.57
2023-01-05T09:03:53.463Z,78.57
2023-01-05T09:04:53.457Z,78.78
2023-01-05T09:05:53.445Z,78.68
2023-01-05T09:06:53.421Z,78.47
2023-01-05T09:07:53.419Z,78.41
2023-01-05T09:08:53.405Z,78.51
2023-01-05T09:09:53.446Z,78.51
2023-01-05T09:10:53.383Z,78.47
2023-01-05T09:11:53.376Z,78.27
2023-01-05T09:12:53.365Z,78.41
2023-01-05T09:13:53.339Z,78.30
2023-01-05T09:14:53.337Z,78.41
2023-01-05T09:15:53.327Z,78.30
2023-01-05T09:17:09.513Z,78.55
2023-01-05T09:17:53.361Z,78.61
2023-01-05T09:18:53.289Z,78.82
2023-01-05T09:19:53.274Z,78.75
2023-01-05T09:20:53.259Z,78.92
2023-01-05T09:21:53.252Z,78.92
2023-01-05T09:22:53.244Z,78.82
2023-01-05T09:23:53.232Z,78.92
2023-01-05T09:24:53.215Z,78.71
2023-01-05T09:25:53.236Z,78.61
2023-01-05T09:26:53.203Z,78.51
2023-01-05T09:27:53.193Z,78.51
2023-01-05T09:28:53.173Z,78.41
2023-01-05T09:29:53.157Z,78.41
2023-01-05T09:30:53.174Z,78.10
2023-01-05T09:31:53.160Z,77.75
2023-01-05T09:32:53.151Z,77.55
2023-01-05T09:33:53.112Z,77.55
2023-01-05T09:34:53.131Z,77.38
2023-01-05T09:35:53.092Z,77.08
2023-01-05T09:36:53.079Z,77.49
2023-01-05T09:37:53.069Z,77.49
2023-01-05T09:38:53.057Z,77.49
2023-01-05T09:39:53.052Z,77.14
2023-01-05T09:40:53.034Z,76.43
2023-01-05T09:41:53.147Z,75.98
2023-01-05T09:42:53.018Z,75.00
2023-01-05T09:43:52.998Z,74.90
2023-01-05T09:44:58.632Z,75.00
2023-01-05T09:45:53.001Z,74.96
2023-01-05T09:46:52.972Z,74.45
2023-01-05T09:47:52.963Z,74.04
2023-01-05T09:48:52.941Z,73.84
2023-01-05T09:49:52.929Z,73.91
2023-01-05T09:50:52.915Z,73.80
2023-01-05T09:51:52.914Z,73.84
2023-01-05T09:52:52.902Z,73.74
2023-01-05T09:53:52.891Z,73.53
2023-01-05T09:54:52.880Z,73.84
2023-01-05T09:55:52.870Z,74.24
2023-01-05T09:57:09.829Z,74.04
2023-01-05T09:57:52.961Z,74.04
2023-01-05T09:58:52.835Z,73.74
2023-01-05T09:59:52.831Z,73.22
2023-01-05T10:00:52.816Z,73.12
2023-01-05T10:01:52.904Z,73.40
2023-01-05T10:02:52.857Z,72.17
2023-01-05T10:04:03.465Z,72.10
2023-01-05T10:04:52.915Z,71.90
2023-01-05T10:05:52.812Z,72.21
2023-01-05T10:06:52.742Z,72.41
2023-01-05T10:07:52.741Z,72.10
2023-01-05T10:08:52.715Z,72.30
2023-01-05T10:09:52.706Z,72.30
2023-01-05T10:10:52.690Z,72.61
2023-01-05T10:11:52.688Z,72.30
2023-01-05T10:12:52.679Z,72.44
2023-01-05T10:13:52.780Z,72.34
2023-01-05T10:14:52.751Z,72.95
2023-01-05T10:15:52.718Z,73.16
2023-01-05T10:16:57.738Z,73.16
2023-01-05T10:17:52.610Z,73.22
2023-01-05T10:18:52.598Z,72.92
2023-01-05T10:19:52.598Z,73.02
2023-01-05T10:20:52.577Z,72.71
2023-01-05T10:21:52.564Z,72.71
2023-01-05T10:22:52.554Z,71.90
2023-01-05T10:23:52.543Z,71.69
2023-01-05T10:24:52.533Z,71.39
2023-01-05T10:25:52.560Z,71.39
2023-01-05T10:27:23.755Z,70.94
2023-01-05T10:27:56.676Z,71.15
2023-01-05T10:28:52.489Z,70.84
2023-01-05T10:29:52.595Z,70.84
2023-01-05T10:30:52.583Z,70.33
2023-01-05T10:31:52.462Z,70.33
2023-01-05T10:32:52.450Z,70.33
2023-01-05T10:33:54.797Z,70.33
2023-01-05T10:34:52.415Z,70.44
2023-01-05T10:36:01.789Z,70.23
2023-01-05T10:37:09.258Z,70.74
2023-01-05T10:37:52.391Z,69.92
2023-01-05T10:38:52.378Z,70.13
2023-01-05T10:39:56.314Z,70.23
2023-01-05T10:40:52.361Z,70.00
2023-01-05T10:41:52.332Z,69.59
2023-01-05T10:42:52.329Z,69.18
2023-01-05T10:43:52.317Z,68.74
2023-01-05T10:44:52.300Z,68.20
2023-01-05T10:46:28.618Z,67.89
2023-01-05T10:46:53.050Z,67.24
2023-01-05T10:47:52.301Z,67.18
2023-01-05T10:48:52.259Z,67.45
2023-01-05T10:49:52.247Z,67.24
2023-01-05T10:50:52.245Z,67.24
2023-01-05T10:51:56.481Z,67.45
2023-01-05T10:52:52.214Z,66.84
2023-01-05T10:53:52.204Z,66.81
2023-01-05T10:54:52.284Z,66.71
2023-01-05T10:55:52.189Z,66.81
2023-01-05T10:56:52.161Z,66.54
2023-01-05T10:57:52.157Z,67.04
2023-01-05T10:58:52.146Z,66.84
2023-01-05T10:59:52.159Z,67.04
2023-01-05T11:00:52.126Z,66.97
2023-01-05T11:01:52.358Z,67.07
2023-01-05T11:02:52.108Z,67.18
2023-01-05T11:04:52.117Z,67.72
2023-01-05T11:05:52.071Z,68.09
2023-01-05T11:06:52.056Z,67.99
2023-01-05T11:07:52.047Z,68.09
2023-01-05T11:08:52.039Z,68.30
2023-01-05T11:09:52.018Z,68.09
2023-01-05T11:10:52.024Z,68.30
2023-01-05T11:11:51.998Z,67.99
2023-01-05T11:12:51.980Z,67.99
2023-01-05T11:13:51.973Z,67.79
2023-01-05T11:14:57.875Z,67.48
2023-01-05T11:15:52.067Z,67.28
2023-01-05T11:16:51.952Z,67.38
2023-01-05T11:17:52.081Z,67.68
2023-01-05T11:18:51.912Z,67.48
2023-01-05T11:19:51.929Z,67.82
2023-01-05T11:20:51.914Z,68.12
2023-01-05T11:21:56.635Z,68.23
2023-01-05T11:22:51.880Z,68.23
2023-01-05T11:23:51.875Z,68.64
2023-01-05T11:24:51.861Z,68.33
2023-01-05T11:25:51.840Z,68.43
2023-01-05T11:26:51.822Z,68.46
2023-01-05T11:27:58.087Z,68.77
2023-01-05T11:28:51.802Z,69.18
2023-01-05T11:29:51.789Z,69.07
2023-01-05T11:30:51.828Z,69.48
2023-01-05T11:31:51.774Z,69.07
2023-01-05T11:32:51.777Z,69.28
2023-01-05T11:33:51.857Z,69.38
2023-01-05T11:34:51.739Z,69.48
2023-01-05T11:35:51.735Z,69.68
2023-01-05T11:36:51.715Z,69.68
2023-01-05T11:37:51.711Z,69.55
2023-01-05T11:38:51.696Z,68.84
2023-01-05T11:39:51.720Z,69.04
2023-01-05T11:40:51.679Z,69.04
2023-01-05T11:41:51.653Z,69.01
2023-01-05T11:42:51.647Z,68.60
2023-01-05T11:43:51.632Z,68.20
2023-01-05T11:44:51.618Z,68.06
2023-01-05T11:45:51.690Z,66.91
2023-01-05T11:46:51.703Z,66.81
2023-01-05T11:47:51.601Z,66.37
2023-01-05T11:48:51.576Z,66.00
2023-01-05T11:49:58.319Z,64.39
2023-01-05T11:50:51.569Z,63.27
2023-01-05T11:51:51.539Z,63.20
2023-01-05T11:52:51.541Z,63.23
2023-01-05T11:53:51.518Z,63.94
2023-01-05T11:54:51.561Z,64.14
2023-01-05T11:55:51.495Z,63.81
2023-01-05T11:56:51.500Z,62.73
2023-01-05T11:57:57.514Z,61.79
2023-01-05T11:58:51.499Z,61.59
2023-01-05T11:59:51.463Z,62.12
2023-01-05T12:00:51.510Z,62.05
2023-01-05T12:01:51.503Z,62.15
2023-01-05T12:02:51.490Z,62.15
2023-01-05T12:03:56.885Z,61.92
2023-01-05T12:04:51.403Z,61.41
2023-01-05T12:05:51.512Z,61.62
2023-01-05T12:06:51.383Z,62.12
2023-01-05T12:07:51.364Z,61.62
2023-01-05T12:08:51.404Z,61.95
2023-01-05T12:09:51.350Z,61.92
2023-01-05T12:10:51.336Z,62.32
2023-01-05T12:11:51.324Z,62.40
2023-01-05T12:12:51.305Z,60.62
2023-01-05T12:13:51.303Z,60.62
2023-01-05T12:14:51.285Z,60.41
2023-01-05T12:15:51.315Z,60.28
2023-01-05T12:16:51.377Z,60.49
2023-01-05T12:17:51.260Z,59.75
2023-01-05T12:18:51.255Z,59.57
2023-01-05T12:19:51.233Z,60.11
2023-01-05T12:20:51.237Z,60.54
2023-01-05T12:21:51.325Z,61.15
2023-01-05T12:22:51.194Z,61.46
2023-01-05T12:23:51.189Z,60.62
2023-01-05T12:24:51.177Z,59.77
2023-01-05T12:25:51.173Z,59.77
2023-01-05T12:26:51.167Z,60.00
2023-01-05T12:27:51.148Z,60.77
2023-01-05T12:29:34.421Z,61.35
2023-01-05T12:34:13.076Z,60.98
2023-01-05T12:34:51.074Z,61.41
2023-01-05T12:35:51.061Z,61.51
2023-01-05T12:36:51.048Z,62.12
2023-01-05T12:37:51.144Z,62.22
2023-01-05T12:38:51.027Z,62.22
2023-01-05T12:39:57.023Z,62.56
2023-01-05T12:40:50.996Z,62.39
2023-01-05T12:41:50.990Z,63.00
2023-01-05T12:42:50.981Z,63.40
2023-01-05T12:43:50.970Z,63.70
2023-01-05T12:44:50.953Z,63.40
2023-01-05T12:45:50.933Z,63.00
2023-01-05T12:46:51.085Z,63.23
2023-01-05T12:47:50.919Z,63.76
2023-01-05T12:48:50.923Z,64.20
2023-01-05T12:49:50.918Z,64.14
2023-01-05T12:50:50.940Z,63.84
2023-01-05T12:51:50.917Z,63.53
2023-01-05T12:52:50.862Z,63.12
2023-01-05T12:53:50.977Z,63.66
2023-01-05T12:54:50.845Z,63.87
2023-01-05T12:55:50.822Z,64.17
2023-01-05T12:56:50.815Z,64.17
2023-01-05T12:57:50.819Z,64.04